Terminal Aerodrome Forecast
Issued by NWS Twin Cities, MN

Home | Current Version | Previous Version | Graphics & Text | Print | Product List | Glossary On
Versions: 1 2 3 4 5 6 7 8 9 10 11 12 13 14 15 16 17 18 19 20 21 22 23
000
FTUS43 KMPX 101506 AAA
TAFSTC
TAF AMD
KSTC 101506Z 1015/1112 33009KT P6SM OVC015
     FM102100 31006KT P6SM SCT020 BKN120
     FM110100 25004KT P6SM SCT025 OVC080
     FM110500 21007KT 2SM -SN BR OVC012
     FM110800 21007KT P6SM VCSH OVC050=

USA.gov is the U.S. government's official web portal to all federal, state and local government web resources and services.